Track Божко Екатерина

Time Latitude Longitude Accuracy (66% radius in meters) Altitude (meters) Speed (km/hour) Bearing (degrees) Battery (%) GPS flag
09:58:34 44.564703 38.171964 8 106.26410878009 1.3461756706238 20.997489929199 87 1 delete
09:58:28 44.564642 38.171869 8 106.72627131594 1.375036239624 69.250679016113 87 1 delete
09:58:25 44.564591 38.171802 8 106.90874155073 1.3659266233444 52.577655792236 87 1 delete
09:58:22 44.564546 38.171763 8 107.05075141066 1.3317941427231 31.25026512146 87 1 delete
09:58:19 44.564475 38.171713 8 107.09527148157 1.2483192682266 333.65042114258 87 1 delete
09:58:16 44.564416 38.171750 8 106.94212576254 1.1003073453903 338.53881835938 87 1 delete
09:58:13 44.564404 38.171765 8 106.95938905338 0.69027692079544 353.00177001953 87 1 delete
09:58:01 44.564406 38.171785 12 107.18418082049 0.55821824073792 111.95412445068 87 1 delete
09:57:58 44.564407 38.171813 8 107.44931959983 1.003643989563 268.67407226562 87 1 delete
09:57:49 44.564438 38.171927 8 108.96502490733 0.68647766113281 28.172777175903 87 1 delete
09:57:43 44.564435 38.171864 12 110.80443552645 1.2103699445724 88.204498291016 87 1 delete
09:57:37 44.564426 38.171786 8 112.62831674581 1.2450060844421 81.809394836426 87 1 delete
09:57:34 44.564414 38.171723 8 113.48051107857 1.333297252655 56.043823242188 87 1 delete
09:57:28 44.564368 38.171672 8 114.81211010156 1.1601692438126 43.267833709717 87 1 delete
09:57:25 44.564343 38.171601 8 115.28557781468 1.1133621931076 51.970470428467 87 1 delete
09:57:16 44.564322 38.171481 8 116.23012779529 0.66756182909012 76.967727661133 87 1 delete
09:57:10 44.564343 38.171422 24 116.20248545707 0.63684332370758 66.312675476074 87 1 delete
09:57:04 44.564317 38.171303 32 116.12441478045 0.36994215846062 314.50531005859 87 1 delete
09:56:52 44.564344 38.171284 8 117.06427323636 0.56563854217529 143.85525512695 87 1 delete
09:56:43 44.564345 38.171270 8 118.37314317529 0.52172642946243 345.48809814453 87 1 delete
09:56:40 44.564343 38.171262 8 118.55688374047 0.030168144032359 133.27279663086 87 1 delete
09:56:34 44.564351 38.171205 8 118.77123069779 1.3520905971527 146.21878051758 87 1 delete
09:56:31 44.564374 38.171148 8 119.03279174138 1.1218550205231 103.71965789795 87 1 delete
09:56:28 44.564374 38.171078 12 119.37280147827 0.50360006093979 88.45499420166 87 1 delete
09:56:22 44.564416 38.171082 8 119.99954865734 0.50426679849625 148.91520690918 87 1 delete
09:56:16 44.564478 38.171068 6 120.29890074888 0.90135228633881 113.20973968506 87 1 delete
09:56:10 44.564546 38.170987 8 120.82884510417 1.0096480846405 152.61552429199 87 1 delete
09:56:07 44.564590 38.170944 12 121.46857713408 0.81425929069519 153.24678039551 87 1 delete
09:56:04 44.564624 38.170906 8 121.95953155868 0.63346183300018 119.8734664917 87 1 delete
09:56:01 44.564639 38.170877 8 122.75287621978 1.109346985817 159.54278564453 87 1 delete
09:55:55 44.564690 38.170836 8 124.22124874928 1.3230111598969 143.35412597656 87 1 delete
09:55:52 44.564738 38.170789 8 124.76576408423 1.3574981689453 127.11184692383 87 1 delete
09:55:49 44.564775 38.170744 12 125.3093657917 1.3699314594269 136.33833312988 87 1 delete
09:55:46 44.564821 38.170706 8 125.43941610066 1.3636691570282 138.01831054688 87 1 delete
09:55:43 44.564878 38.170641 8 125.4307774556 1.1684155464172 141.39994812012 87 1 delete
09:55:40 44.564913 38.170598 12 125.54215149707 0.9395894408226 112.92192077637 87 1 delete
09:55:34 44.564962 38.170536 24 125.63347447176 0.70194721221924 101.76856231689 87 1 delete
09:55:28 44.564996 38.170475 8 125.40759875895 0.54701870679855 217.4662322998 87 1 delete
09:55:22 44.565060 38.170454 8 125.48351777874 1.329216837883 178.62507629395 87 1 delete
09:55:19 44.565111 38.170427 8 125.55717377607 1.4215064048767 153.2512512207 87 1 delete
09:55:16 44.565148 38.170366 8 125.81694917159 1.4117274284363 96.105850219727 87 1 delete
09:55:13 44.565185 38.170309 8 126.10920608651 1.4299803972244 139.05461120605 87 1 delete
09:55:10 44.565215 38.170255 8 126.33964250895 1.4614938497543 104.21921539307 87 1 delete
09:55:07 44.565236 38.170225 8 126.57584204094 1.4762278795242 146.37251281738 87 1 delete
09:55:04 44.565266 38.170188 8 126.71338142672 1.4555079936981 164.63554382324 87 1 delete
09:54:58 44.565335 38.170175 8 127.59934064672 1.5576945543289 170.41554260254 87 1 delete
09:54:55 44.565384 38.170201 8 128.25775940388 1.5012799501419 176.63740539551 87 1 delete
09:54:52 44.565435 38.170213 8 128.78821249021 1.4711824655533 198.37396240234 87 1 delete
09:54:49 44.565514 38.170221 8 129.47642000726 1.5479227304459 178.88970947266 87 1 delete
09:54:46 44.565585 38.170207 8 130.13638161291 1.5974270105362 149.37936401367 87 1 delete